createdAt,value
2019-03-03T00:04:13.635Z,0.31
2019-03-03T00:09:22.891Z,0.33
2019-03-03T00:14:32.086Z,0.48
2019-03-03T00:19:41.354Z,0.32
2019-03-03T00:24:50.494Z,0.35
2019-03-03T00:29:59.704Z,0.37
2019-03-03T00:35:08.856Z,0.36
2019-03-03T00:40:18.146Z,0.54
2019-03-03T00:45:27.402Z,0.67
2019-03-03T00:50:36.654Z,0.41
2019-03-03T00:55:45.932Z,0.37
2019-03-03T01:00:55.219Z,0.57
2019-03-03T01:06:04.548Z,0.28
2019-03-03T01:11:13.801Z,0.44
2019-03-03T01:16:22.948Z,0.35
2019-03-03T01:21:32.260Z,0.33
2019-03-03T01:26:41.467Z,0.42
2019-03-03T01:31:50.610Z,0.39
2019-03-03T01:36:59.893Z,0.51
2019-03-03T01:42:09.164Z,0.37
2019-03-03T01:47:18.347Z,0.32
2019-03-03T01:52:27.503Z,0.37
2019-03-03T01:57:36.887Z,0.58
2019-03-03T02:02:46.076Z,0.43
2019-03-03T02:07:55.357Z,0.43
2019-03-03T02:13:04.602Z,0.56
2019-03-03T02:18:13.863Z,0.27
2019-03-03T02:23:23.238Z,0.36
2019-03-03T02:28:32.425Z,0.28
2019-03-03T02:33:41.667Z,0.49
2019-03-03T02:38:50.957Z,0.34
2019-03-03T02:44:00.163Z,0.29
2019-03-03T02:49:09.387Z,0.25
2019-03-03T02:54:18.622Z,0.42
2019-03-03T02:59:27.816Z,0.37
2019-03-03T03:04:37.018Z,0.41
2019-03-03T03:09:46.261Z,0.39
2019-03-03T03:14:55.484Z,0.33
2019-03-03T03:20:04.633Z,0.42
2019-03-03T03:25:14.144Z,0.66
2019-03-03T03:30:23.309Z,0.60
2019-03-03T03:35:32.628Z,0.46
2019-03-03T03:40:41.879Z,0.70
2019-03-03T03:45:51.147Z,0.40
2019-03-03T03:51:00.351Z,0.52
2019-03-03T03:56:09.740Z,0.37
2019-03-03T04:01:18.987Z,0.36
2019-03-03T04:06:28.270Z,0.59
2019-03-03T04:11:37.467Z,0.38
2019-03-03T04:16:46.851Z,0.40
2019-03-03T04:21:56.048Z,0.39
2019-03-03T04:27:05.454Z,0.72
2019-03-03T04:32:14.728Z,0.39
2019-03-03T04:37:24.042Z,0.59
2019-03-03T04:42:33.422Z,0.37
2019-03-03T04:47:42.647Z,0.52
2019-03-03T04:52:51.914Z,0.30
2019-03-03T04:58:01.158Z,0.76
2019-03-03T05:03:10.392Z,0.67
2019-03-03T05:08:19.650Z,0.43
2019-03-03T05:13:28.878Z,0.30
2019-03-03T05:18:38.079Z,0.30
2019-03-03T05:23:47.311Z,0.34
2019-03-03T05:28:56.495Z,0.45
2019-03-03T05:34:05.813Z,0.71
2019-03-03T05:39:15.067Z,0.76
2019-03-03T05:44:24.387Z,0.55
2019-03-03T05:49:33.648Z,0.72
2019-03-03T05:54:42.918Z,0.53
2019-03-03T05:59:52.134Z,0.57
2019-03-03T06:05:01.413Z,0.49
2019-03-03T06:10:10.672Z,0.45
2019-03-03T06:15:19.989Z,0.52
2019-03-03T06:20:29.193Z,0.46
2019-03-03T06:25:38.424Z,0.81
2019-03-03T06:30:47.786Z,0.37
2019-03-03T06:35:56.968Z,0.44
2019-03-03T06:41:06.242Z,0.28
2019-03-03T06:46:15.507Z,0.47
2019-03-03T06:51:24.823Z,0.70
2019-03-03T06:56:34.050Z,0.59
2019-03-03T07:01:43.336Z,0.46
2019-03-03T07:06:52.571Z,0.91
2019-03-03T07:12:01.893Z,0.63
2019-03-03T07:17:11.164Z,1.25
2019-03-03T07:22:20.491Z,0.77
2019-03-03T07:27:29.657Z,0.50
2019-03-03T07:32:39.027Z,0.72
2019-03-03T07:37:48.272Z,0.48
2019-03-03T07:42:57.510Z,0.73
2019-03-03T07:48:06.758Z,0.76
2019-03-03T07:53:16.171Z,1.02
2019-03-03T07:58:25.408Z,0.56
2019-03-03T08:03:34.807Z,0.77
2019-03-03T08:08:44.050Z,0.40
2019-03-03T08:13:53.477Z,0.75
2019-03-03T08:19:02.841Z,0.70
2019-03-03T08:24:12.243Z,0.59
2019-03-03T08:29:21.487Z,1.29
2019-03-03T08:34:30.725Z,0.54
2019-03-03T08:39:39.976Z,0.44
2019-03-03T08:44:49.243Z,0.92
2019-03-03T08:49:58.607Z,0.48
2019-03-03T08:55:07.793Z,1.31
2019-03-03T09:00:18.236Z,1.04
2019-03-03T09:05:25.927Z,1.09
2019-03-03T09:10:35.159Z,0.72
2019-03-03T09:15:44.458Z,0.41
2019-03-03T09:20:53.848Z,0.60
2019-03-03T09:26:03.139Z,0.52
2019-03-03T09:31:12.395Z,0.48
2019-03-03T09:36:21.651Z,0.60
2019-03-03T09:41:30.937Z,0.56
2019-03-03T09:46:40.121Z,0.50
2019-03-03T09:51:49.522Z,0.52
2019-03-03T09:56:58.880Z,0.75
2019-03-03T10:02:08.218Z,0.31
2019-03-03T10:07:17.547Z,0.52
2019-03-03T10:12:26.976Z,0.26
2019-03-03T10:17:36.395Z,0.36
2019-03-03T10:22:45.749Z,0.29
2019-03-03T10:27:54.982Z,0.21
2019-03-03T10:33:04.351Z,0.64
2019-03-03T10:38:13.603Z,0.36
2019-03-03T10:43:23.178Z,0.32
2019-03-03T10:48:32.617Z,0.23
2019-03-03T10:53:42.282Z,0.39
2019-03-03T10:58:51.575Z,0.61
2019-03-03T11:04:00.998Z,0.39
2019-03-03T11:09:10.219Z,0.48
2019-03-03T11:14:19.686Z,0.27
2019-03-03T11:19:28.903Z,0.36
2019-03-03T11:24:38.344Z,0.39
2019-03-03T11:29:47.723Z,0.19
2019-03-03T11:34:57.187Z,0.18
2019-03-03T11:40:06.588Z,0.26
2019-03-03T11:45:15.894Z,0.18
2019-03-03T11:50:25.126Z,0.25
2019-03-03T11:55:34.411Z,0.21
2019-03-03T12:00:42.599Z,0.21
2019-03-03T12:05:51.871Z,0.32
2019-03-03T12:11:01.803Z,0.21
2019-03-03T12:16:11.051Z,0.20
2019-03-03T12:21:20.567Z,0.20
2019-03-03T12:26:29.762Z,0.27
2019-03-03T12:31:39.463Z,0.12
2019-03-03T12:36:48.725Z,0.29
2019-03-03T12:41:58.161Z,0.15
2019-03-03T12:47:07.493Z,0.12
2019-03-03T12:52:16.845Z,0.23
2019-03-03T12:57:26.091Z,0.19
2019-03-03T13:02:35.294Z,0.09
2019-03-03T13:07:44.543Z,0.30
2019-03-03T13:12:53.815Z,0.18
2019-03-03T13:18:03.060Z,0.13
2019-03-03T13:23:12.516Z,0.23
2019-03-03T13:28:21.929Z,0.08
2019-03-03T13:33:31.399Z,0.12
2019-03-03T13:38:40.687Z,0.07
2019-03-03T13:43:50.030Z,0.01
2019-03-03T13:48:59.307Z,0.09
2019-03-03T13:54:08.644Z,0.11
2019-03-03T13:59:17.863Z,0.15
2019-03-03T14:04:27.096Z,0.07
2019-03-03T14:09:36.256Z,0.17
2019-03-03T14:14:45.610Z,0.16
2019-03-03T14:19:54.766Z,0.16
2019-03-03T14:25:04.180Z,0.18
2019-03-03T14:30:13.651Z,0.13
2019-03-03T14:35:23.140Z,0.08
2019-03-03T14:40:32.415Z,0.09
2019-03-03T14:45:41.715Z,0.14
2019-03-03T14:50:50.919Z,0.26
2019-03-03T14:56:00.244Z,0.53
2019-03-03T15:01:09.519Z,0.34
2019-03-03T15:06:24.334Z,0.27
2019-03-03T15:11:27.568Z,0.10
2019-03-03T15:16:36.773Z,0.11
2019-03-03T15:21:46.010Z,0.11
2019-03-03T15:26:55.279Z,0.18
2019-03-03T15:32:04.804Z,0.23
2019-03-03T15:37:14.002Z,0.21
2019-03-03T15:42:23.623Z,0.17
2019-03-03T15:47:32.919Z,0.51
2019-03-03T15:52:42.462Z,0.76
2019-03-03T15:57:51.842Z,0.16
2019-03-03T16:03:01.223Z,0.31
2019-03-03T16:08:10.707Z,0.41
2019-03-03T16:13:19.931Z,0.37
2019-03-03T16:18:29.186Z,0.10
2019-03-03T16:23:38.572Z,0.21
2019-03-03T16:28:48.315Z,0.34
2019-03-03T16:33:57.528Z,0.34
2019-03-03T16:39:06.849Z,0.28
2019-03-03T16:44:16.063Z,0.35
2019-03-03T16:49:25.569Z,0.29
2019-03-03T16:54:35.002Z,0.61
2019-03-03T16:59:44.498Z,0.30
2019-03-03T17:04:53.695Z,0.57
2019-03-03T17:10:03.165Z,0.51
2019-03-03T17:15:12.439Z,0.36
2019-03-03T17:20:22.022Z,0.47
2019-03-03T17:25:31.314Z,0.28
2019-03-03T17:30:40.801Z,0.58
2019-03-03T17:35:50.055Z,0.34
2019-03-03T17:40:59.336Z,0.30
2019-03-03T17:46:08.651Z,0.59
2019-03-03T17:51:18.092Z,0.39
2019-03-03T17:56:27.437Z,0.37
2019-03-03T18:01:36.669Z,0.89
2019-03-03T18:06:46.050Z,0.54
2019-03-03T18:11:55.341Z,0.55
2019-03-03T18:17:04.859Z,0.52
2019-03-03T18:22:14.111Z,0.60
2019-03-03T18:27:23.464Z,1.06
2019-03-03T18:32:32.755Z,1.08
2019-03-03T18:37:42.071Z,1.09
2019-03-03T18:42:51.321Z,0.69
2019-03-03T18:48:00.725Z,0.62
2019-03-03T18:53:09.947Z,0.32
2019-03-03T18:58:19.282Z,0.51
2019-03-03T19:03:28.542Z,0.86
2019-03-03T19:08:38.010Z,0.62
2019-03-03T19:13:47.469Z,0.52
2019-03-03T19:18:56.815Z,0.56
2019-03-03T19:24:06.121Z,0.75
2019-03-03T19:29:15.438Z,1.48
2019-03-03T19:34:24.769Z,1.24
2019-03-03T19:39:34.215Z,1.01
2019-03-03T19:44:43.467Z,0.61
2019-03-03T19:49:52.696Z,0.59
2019-03-03T19:55:01.977Z,0.39
2019-03-03T20:00:11.221Z,0.69
2019-03-03T20:05:20.420Z,0.41
2019-03-03T20:10:29.712Z,1.01
2019-03-03T20:15:38.952Z,0.65
2019-03-03T20:20:48.338Z,1.27
2019-03-03T20:25:58.530Z,1.05
2019-03-03T20:30:57.755Z,1.34
2019-03-03T20:36:06.987Z,1.10
2019-03-03T20:41:16.281Z,0.79
2019-03-03T20:46:25.600Z,0.65
2019-03-03T20:51:34.939Z,0.72
2019-03-03T20:56:44.323Z,0.50
2019-03-03T21:01:53.500Z,0.79
2019-03-03T21:07:03.879Z,0.89
2019-03-03T21:12:03.139Z,0.85
2019-03-03T21:17:14.748Z,0.72
2019-03-03T21:22:13.686Z,0.59
2019-03-03T21:27:23.080Z,0.75
2019-03-03T21:32:32.389Z,1.08
2019-03-03T21:37:41.758Z,0.73
2019-03-03T21:42:50.967Z,1.29
2019-03-03T21:48:00.433Z,1.17
2019-03-03T21:53:09.639Z,0.70
2019-03-03T21:58:18.884Z,0.75
2019-03-03T22:03:28.188Z,0.88
2019-03-03T22:08:37.427Z,0.89
2019-03-03T22:13:46.838Z,1.02
2019-03-03T22:18:56.028Z,1.28
2019-03-03T22:24:05.286Z,1.47
2019-03-03T22:29:14.544Z,0.64
2019-03-03T22:34:23.908Z,1.12
2019-03-03T22:39:33.072Z,0.76
2019-03-03T22:44:42.388Z,0.63
2019-03-03T22:49:51.545Z,0.55
2019-03-03T22:55:00.773Z,0.63
2019-03-03T23:00:09.940Z,0.51
2019-03-03T23:05:19.252Z,0.65
2019-03-03T23:10:28.529Z,0.91
2019-03-03T23:15:37.958Z,0.34
2019-03-03T23:20:47.130Z,0.51
2019-03-03T23:25:56.444Z,0.81
2019-03-03T23:31:05.629Z,0.75
2019-03-03T23:36:14.842Z,0.65
2019-03-03T23:41:24.140Z,0.93
2019-03-03T23:46:34.039Z,0.59
2019-03-03T23:51:43.246Z,0.69
2019-03-03T23:56:52.459Z,0.77
